KSZL/SZL METAR and TAF weather

Enter ICAO airport designator
Station Type Date Time Source
KSZL METAR 2019/12/08 00:56 UTC NOAA

KSZL 080056Z 14004KT 10SM CLR 04/M02 A3009 RMK AO2A SLP201 T00441022 $


Station Type Date Time Source
KSZL Decoded METAR 2019/12/08 00:56 UTC NOAA

Whiteman Air Force Base, MO, United States (KSZL) 38-44N 093-33W
Dec 07, 2019 - 07:56 PM EST / 2019.12.08 0056 UTC
Wind: from the SE (140 degrees) at 5 MPH (4 KT):0
Visibility: 10 mile(s):0
Sky conditions: clear
Temperature: 39.9 F (4.4 C)
Dew Point: 28.0 F (-2.2 C)
Relative Humidity: 62%
Pressure (altimeter): 30.09 in. Hg (1018 hPa)
ob: KSZL 080056Z 14004KT 10SM CLR 04/M02 A3009 RMK AO2A SLP201 T00441022
cycle: 1

Station Type Date Time Source
KSZL TAF 2019/12/07 19:03 UTC NOAA

TAF KSZL 071900Z 0719/0901 VRB06KT 9999 SKC QNH3026INS
BECMG 0807/0808 18006KT 9999 BKN010 QNH3001INS
BECMG 0821/0822 20008KT 8000 SHRA BKN005 QNH2982INS TX08/0720Z TNM06/0813Z

Example: see airport list